Time;durP1;ratioP1;P1;durP2;ratioP2;P2;SDS_P1;SDS_P2;PMS_P1;PMS_P2;Temp;Humidity;BMP_temperature;BMP_pressure;BME280_temperature;BME280_humidity;BME280_pressure;Samples;Min_cycle;Max_cycle;Signal;HPM_P1;HPM_P2
2023/01/07 00:01:39;;;;;;;23.52;14.95;;;;;;;6.51;98.50;99358.66;1661474;86;21000;-40
2023/01/07 00:04:12;;;;;;;27.48;18.42;;;;;;;6.48;98.09;99351.80;1661777;86;21050;-43
2023/01/07 00:06:41;;;;;;;26.23;18.77;;;;;;;6.48;98.65;99354.88;1661770;86;21030;-40
2023/01/07 00:09:11;;;;;;;26.52;17.82;;;;;;;6.49;98.75;99357.44;1661812;86;21027;-40
2023/01/07 00:11:39;;;;;;;30.12;19.45;;;;;;;6.54;98.46;99362.47;1661962;86;21071;-41
2023/01/07 00:14:08;;;;;;;31.93;20.55;;;;;;;6.52;98.78;99372.13;1661736;86;21019;-40
2023/01/07 00:16:36;;;;;;;29.40;19.25;;;;;;;6.52;99.05;99366.44;1662140;86;21015;-42
2023/01/07 00:19:04;;;;;;;29.10;19.45;;;;;;;6.52;98.87;99361.69;1661649;86;21079;-40
2023/01/07 00:21:31;;;;;;;27.50;18.85;;;;;;;6.51;98.96;99363.45;1663233;85;21063;-40
2023/01/07 00:24:01;;;;;;;29.30;18.27;;;;;;;6.56;98.81;99371.56;1662175;86;21050;-39
2023/01/07 00:26:31;;;;;;;28.67;20.85;;;;;;;6.51;98.52;99379.56;1661253;86;21086;-39
2023/01/07 00:28:57;;;;;;;21.55;15.95;;;;;;;6.50;98.79;99382.63;1661969;86;21011;-40
2023/01/07 00:31:27;;;;;;;22.85;15.88;;;;;;;6.50;98.96;99387.86;1661515;86;21023;-43
2023/01/07 00:36:28;;;;;;;25.40;16.70;;;;;;;6.51;99.39;99381.73;1661976;86;21007;-38
2023/01/07 00:38:58;;;;;;;24.43;17.12;;;;;;;6.51;99.48;99397.41;1644952;86;21023;-42
2023/01/07 00:41:24;;;;;;;22.17;15.40;;;;;;;6.56;99.02;99392.47;1651986;85;21024;-40
2023/01/07 00:43:50;;;;;;;24.98;16.12;;;;;;;6.51;100.00;99387.39;1661301;86;21015;-42
2023/01/07 00:46:17;;;;;;;24.50;15.55;;;;;;;6.50;99.81;99394.39;1661689;86;21011;-42
2023/01/07 00:48:43;;;;;;;22.93;14.68;;;;;;;6.49;100.00;99399.23;1661621;86;21572;-42
2023/01/07 00:51:12;;;;;;;25.90;16.55;;;;;;;6.50;100.00;99400.92;1661792;86;21019;-42
2023/01/07 00:53:38;;;;;;;27.32;16.77;;;;;;;6.54;100.00;99397.74;1661227;86;21037;-40
2023/01/07 00:56:04;;;;;;;25.95;16.25;;;;;;;6.56;99.76;99402.92;1661675;86;21039;-40
2023/01/07 00:58:30;;;;;;;25.95;16.42;;;;;;;6.59;99.50;99406.27;1661790;86;21517;-39
2023/01/07 01:00:58;;;;;;;25.35;15.58;;;;;;;6.58;99.67;99411.09;1661737;86;21055;-41
2023/01/07 01:03:26;;;;;;;25.50;15.93;;;;;;;6.61;99.60;99403.60;1661739;86;21019;-41
2023/01/07 01:05:53;;;;;;;23.83;15.23;;;;;;;6.59;99.51;99407.58;1661652;86;21496;-43
2023/01/07 01:08:21;;;;;;;23.20;14.95;;;;;;;6.60;99.63;99411.88;1661838;86;21019;-42
2023/01/07 01:10:47;;;;;;;;;;;;;;;6.63;99.33;99407.01;1664167;86;20983;-42
2023/01/07 01:13:16;;;;;;;25.70;14.83;;;;;;;6.62;99.38;99407.91;1661655;86;20445;-40
2023/01/07 01:15:47;;;;;;;24.23;15.23;;;;;;;6.60;99.51;99410.57;1661577;86;21048;-42
2023/01/07 01:18:14;;;;;;;21.05;14.50;;;;;;;6.61;99.37;99395.77;1661852;86;21055;-40
2023/01/07 01:20:41;;;;;;;23.77;15.10;;;;;;;6.61;99.64;99394.00;1661784;86;20976;-42
2023/01/07 01:23:07;;;;;;;23.10;15.03;;;;;;;6.62;99.35;99395.71;1661909;86;21074;-42
2023/01/07 01:25:34;;;;;;;20.57;14.75;;;;;;;6.63;99.15;99391.33;1661903;86;21427;-43
2023/01/07 01:28:00;;;;;;;26.20;14.47;;;;;;;6.63;99.37;99386.95;1661693;85;20992;-40
2023/01/07 01:30:25;;;;;;;20.55;13.72;;;;;;;6.66;99.07;99390.77;1661698;86;21015;-41
2023/01/07 01:32:52;;;;;;;18.90;12.82;;;;;;;6.65;98.88;99386.89;1661983;85;21031;-41
2023/01/07 01:35:17;;;;;;;21.07;12.98;;;;;;;6.63;98.62;99384.80;1661707;86;21019;-42
2023/01/07 01:37:43;;;;;;;21.25;13.98;;;;;;;6.59;98.40;99380.60;1661566;86;21040;-43
2023/01/07 01:40:11;;;;;;;18.70;13.32;;;;;;;6.57;98.53;99379.78;1660720;86;21007;-42
2023/01/07 01:42:37;;;;;;;21.37;13.68;;;;;;;6.52;98.40;99383.42;1661809;85;20991;-42
2023/01/07 01:45:04;;;;;;;21.25;14.25;;;;;;;6.48;98.51;99387.07;1661547;86;21004;-43
2023/01/07 01:47:49;;;;;;;23.52;14.00;;;;;;;6.45;98.28;99388.94;1661111;86;21118;-41
2023/01/07 01:50:35;;;;;;;21.77;14.78;;;;;;;6.44;98.27;99395.94;1631982;87;21058;-42
2023/01/07 01:53:21;;;;;;;23.03;14.07;;;;;;;6.41;98.41;99393.89;1652780;86;20999;-41
2023/01/07 01:55:52;;;;;;;21.45;14.93;;;;;;;6.37;98.41;99397.50;1622319;88;21028;-39
2023/01/07 01:58:29;;;;;;;23.45;13.72;;;;;;;6.35;98.29;99393.66;1622214;88;21521;-40
2023/01/07 02:00:55;;;;;;;18.40;12.58;;;;;;;6.28;98.49;99389.56;1622393;88;21028;-40
2023/01/07 02:03:25;;;;;;;22.40;13.45;;;;;;;6.22;98.29;99397.17;1622327;88;21035;-41
2023/01/07 02:05:51;;;;;;;25.00;13.40;;;;;;;6.18;98.43;99401.23;1622332;88;21280;-42
2023/01/07 02:08:22;;;;;;;19.77;12.75;;;;;;;6.10;97.96;99397.59;1622469;88;21116;-41
2023/01/07 02:10:46;;;;;;;19.20;11.63;;;;;;;6.08;98.00;99396.80;1621894;88;21060;-42
2023/01/07 02:14:00;;;;;;;16.40;12.37;;;;;;;6.02;98.64;99396.57;1622441;88;21036;-41
2023/01/07 02:16:34;;;;;;;19.92;13.18;;;;;;;5.99;99.12;99391.91;1608494;88;20997;-39
2023/01/07 02:19:45;;;;;;;16.82;11.93;;;;;;;5.96;98.65;99391.55;1622180;88;21028;-40
2023/01/07 02:22:19;;;;;;;15.50;11.93;;;;;;;5.92;98.32;99386.01;1622336;88;21000;-43
2023/01/07 02:25:17;;;;;;;17.67;12.37;;;;;;;5.88;98.76;99391.78;1622325;88;21521;-42
2023/01/07 02:28:20;;;;;;;18.27;12.28;;;;;;;5.85;98.42;99391.03;1626589;88;21490;-39
2023/01/07 02:31:34;;;;;;;18.25;12.55;;;;;;;5.79;98.47;99399.09;1630606;87;21605;-41
2023/01/07 02:34:23;;;;;;;26.42;13.80;;;;;;;5.77;98.57;99395.22;1652503;87;21024;-42
2023/01/07 02:37:15;;;;;;;19.50;12.55;;;;;;;5.77;98.91;99392.61;1629860;87;21000;-40
2023/01/07 02:40:01;;;;;;;19.20;11.95;;;;;;;5.73;99.41;99393.17;1652809;86;21541;-42
2023/01/07 02:42:41;;;;;;;18.07;11.97;;;;;;;5.72;99.65;99391.91;1653115;87;21023;-44
2023/01/07 02:45:30;;;;;;;19.65;12.82;;;;;;;5.69;100.00;99401.13;1652613;87;21362;-40
2023/01/07 02:50:59;;;;;;;18.15;12.78;;;;;;;5.70;100.00;99403.70;1799655;78;22940;-42
2023/01/07 02:53:25;;;;;;;16.70;12.18;;;;;;;5.68;100.00;99399.45;1761736;81;21022;-41
2023/01/07 02:56:34;;;;;;;21.35;12.93;;;;;;;5.69;100.00;99403.28;1761733;81;20998;-42
2023/01/07 02:59:24;;;;;;;17.80;12.60;;;;;;;5.68;100.00;99392.92;1761843;81;21543;-43
2023/01/07 03:02:29;;;;;;;19.50;13.15;;;;;;;5.73;100.00;99398.39;1761945;80;21014;-43
2023/01/07 03:05:24;;;;;;;17.45;11.38;;;;;;;5.72;100.00;99399.28;1762063;81;21034;-44
2023/01/07 03:08:24;;;;;;;18.12;12.55;;;;;;;5.74;100.00;99401.84;1761524;81;21054;-40
2023/01/07 03:11:03;;;;;;;20.20;12.65;;;;;;;5.73;99.76;99403.61;1761815;81;21031;-40
2023/01/07 03:13:43;;;;;;;18.17;12.73;;;;;;;5.75;100.00;99412.69;1761825;81;20963;-42
2023/01/07 03:16:37;;;;;;;20.72;13.40;;;;;;;5.73;100.00;99415.34;1740377;81;20987;-41
2023/01/07 03:19:11;;;;;;;21.00;13.35;;;;;;;5.72;100.00;99411.48;1761099;81;21022;-41
2023/01/07 03:21:38;;;;;;;19.60;13.00;;;;;;;5.72;100.00;99418.00;1757220;81;20995;-42
2023/01/07 03:24:06;;;;;;;18.37;12.50;;;;;;;5.75;100.00;99429.19;1760133;81;21007;-41
2023/01/07 03:26:39;;;;;;;17.95;13.43;;;;;;;5.77;100.00;99426.53;1760066;81;20995;-43
2023/01/07 03:29:09;;;;;;;17.45;13.32;;;;;;;5.81;100.00;99428.13;1760008;81;21038;-40
2023/01/07 03:31:39;;;;;;;23.60;14.65;;;;;;;5.83;100.00;99434.61;1760105;81;20998;-40
2023/01/07 03:34:12;;;;;;;21.50;14.40;;;;;;;5.81;100.00;99424.67;1759892;81;20999;-41
2023/01/07 03:36:51;;;;;;;26.30;14.45;;;;;;;5.82;100.00;99428.55;1759433;81;21483;-43
2023/01/07 03:39:18;;;;;;;20.48;13.78;;;;;;;5.83;100.00;99426.78;1759787;81;21015;-41
2023/01/07 03:44:28;;;;;;;19.80;13.43;;;;;;;5.84;100.00;99418.91;1760118;81;21094;-41
2023/01/07 03:46:54;;;;;;;19.55;13.22;;;;;;;5.84;100.00;99417.59;1760066;81;21038;-42
2023/01/07 03:49:20;;;;;;;21.10;14.15;;;;;;;5.83;100.00;99413.73;1757128;81;21027;-43
2023/01/07 03:51:48;;;;;;;20.50;13.58;;;;;;;5.81;100.00;99412.47;1747075;82;21094;-39
2023/01/07 03:54:13;;;;;;;;;;;;;;;5.81;100.00;99407.72;1749435;82;20975;-41
2023/01/07 03:56:38;;;;;;;19.15;13.58;;;;;;;5.81;100.00;99404.64;1747094;81;20118;-42
2023/01/07 03:59:04;;;;;;;19.10;12.90;;;;;;;5.80;100.00;99400.31;1747114;82;21481;-40
2023/01/07 04:01:30;;;;;;;21.02;13.68;;;;;;;5.80;100.00;99409.91;1746619;82;21496;-40
2023/01/07 04:03:56;;;;;;;21.23;13.70;;;;;;;5.85;100.00;99411.91;1746479;81;21031;-42
2023/01/07 04:06:22;;;;;;;18.40;13.60;;;;;;;5.86;100.00;99411.02;1746455;82;21102;-45
2023/01/07 04:08:48;;;;;;;18.02;13.22;;;;;;;5.92;100.00;99412.11;1746396;82;20995;-41
2023/01/07 04:11:14;;;;;;;17.50;13.18;;;;;;;5.94;100.00;99408.52;1746422;82;20975;-40
2023/01/07 04:13:39;;;;;;;17.62;12.93;;;;;;;5.97;100.00;99407.63;1746452;82;21090;-41
2023/01/07 04:16:06;;;;;;;20.50;13.15;;;;;;;6.00;100.00;99415.32;1746498;82;20995;-40
2023/01/07 04:18:31;;;;;;;19.77;14.87;;;;;;;6.03;100.00;99420.91;1746472;82;20976;-42
2023/01/07 04:20:57;;;;;;;21.35;13.85;;;;;;;6.04;100.00;99422.59;1746191;82;21567;-40
2023/01/07 04:23:23;;;;;;;17.23;12.13;;;;;;;6.05;100.00;99418.63;1745330;81;21547;-40
2023/01/07 04:25:49;;;;;;;21.12;13.88;;;;;;;6.05;100.00;99419.94;1745598;82;21512;-40
2023/01/07 04:28:15;;;;;;;18.75;13.08;;;;;;;6.05;100.00;99416.02;1746500;82;21031;-43
2023/01/07 04:30:41;;;;;;;24.45;14.58;;;;;;;6.07;100.00;99410.75;1746441;81;20984;-43
2023/01/07 04:33:07;;;;;;;23.07;15.58;;;;;;;6.10;100.00;99412.80;1746440;82;21111;-40
2023/01/07 04:35:33;;;;;;;20.45;15.23;;;;;;;6.09;100.00;99413.73;1746564;82;21391;-40
2023/01/07 04:37:59;;;;;;;27.42;16.30;;;;;;;6.07;100.00;99419.89;1746390;82;21477;-40
2023/01/07 04:40:26;;;;;;;23.40;15.65;;;;;;;6.03;100.00;99415.69;1746545;81;21515;-42
2023/01/07 04:42:52;;;;;;;25.77;16.42;;;;;;;6.04;100.00;99406.50;1746746;82;20983;-40
2023/01/07 04:45:17;;;;;;;23.10;16.15;;;;;;;6.03;100.00;99417.84;1746478;82;21067;-41
2023/01/07 04:47:43;;;;;;;23.00;16.45;;;;;;;6.03;100.00;99423.52;1746586;82;21474;-43
2023/01/07 04:50:09;;;;;;;23.12;16.40;;;;;;;6.04;100.00;99425.20;1746247;82;20984;-40
2023/01/07 04:52:35;;;;;;;24.32;15.88;;;;;;;6.02;100.00;99427.89;1746381;82;21027;-43
2023/01/07 04:55:01;;;;;;;21.70;15.43;;;;;;;6.05;100.00;99428.23;1746447;82;21578;-42
2023/01/07 04:57:27;;;;;;;24.80;16.45;;;;;;;6.05;100.00;99432.99;1746457;82;21068;-43
2023/01/07 04:59:52;;;;;;;22.37;16.00;;;;;;;6.03;100.00;99434.80;1746504;82;21004;-42
2023/01/07 05:02:18;;;;;;;25.77;15.65;;;;;;;6.04;100.00;99439.56;1746475;82;21031;-40
2023/01/07 05:04:44;;;;;;;24.20;16.15;;;;;;;6.05;100.00;99431.69;1746452;82;20976;-43
2023/01/07 05:07:10;;;;;;;25.02;16.32;;;;;;;6.04;100.00;99435.65;1746408;82;21487;-41
2023/01/07 05:09:35;;;;;;;23.83;15.80;;;;;;;6.05;100.00;99429.53;1746536;82;20975;-40
2023/01/07 05:12:01;;;;;;;26.27;17.52;;;;;;;6.03;100.00;99426.97;1746433;82;21094;-42
2023/01/07 05:14:27;;;;;;;28.35;18.48;;;;;;;6.01;100.00;99428.79;1746503;82;21500;-43
2023/01/07 05:16:53;;;;;;;32.35;18.80;;;;;;;6.01;100.00;99433.16;1746437;82;21029;-43
2023/01/07 05:19:20;;;;;;;38.83;20.95;;;;;;;6.00;99.91;99428.38;1746419;82;21067;-40
2023/01/07 05:21:46;;;;;;;38.25;21.02;;;;;;;5.98;99.69;99427.58;1746482;82;21039;-43
2023/01/07 05:24:12;;;;;;;32.40;19.23;;;;;;;5.92;99.48;99426.47;1746411;82;20990;-42
2023/01/07 05:26:38;;;;;;;34.58;20.30;;;;;;;5.90;99.66;99425.20;1746407;82;21070;-40
2023/01/07 05:29:04;;;;;;;40.78;21.20;;;;;;;5.85;99.61;99417.98;1746392;81;21022;-40
2023/01/07 05:31:30;;;;;;;35.08;19.70;;;;;;;5.80;99.89;99421.66;1746438;82;20991;-43
2023/01/07 05:33:55;;;;;;;40.92;20.50;;;;;;;5.71;100.00;99421.50;1746425;82;20964;-40
2023/01/07 05:36:21;;;;;;;33.20;19.87;;;;;;;5.69;100.00;99428.07;1746397;81;21512;-42
2023/01/07 05:38:47;;;;;;;31.00;19.30;;;;;;;5.64;100.00;99426.09;1746514;82;21516;-40
2023/01/07 05:41:13;;;;;;;36.38;20.10;;;;;;;5.63;100.00;99425.67;1746481;82;21468;-44
2023/01/07 05:43:39;;;;;;;38.40;19.87;;;;;;;5.65;100.00;99433.00;1746512;81;21504;-41
2023/01/07 05:46:04;;;;;;;42.23;20.70;;;;;;;5.68;100.00;99431.60;1746399;82;21501;-41
2023/01/07 05:48:31;;;;;;;50.28;20.88;;;;;;;5.70;100.00;99434.16;1746400;82;20999;-41
2023/01/07 05:50:56;;;;;;;48.87;23.67;;;;;;;5.68;100.00;99430.76;1746214;81;21501;-42
2023/01/07 05:53:22;;;;;;;34.27;20.30;;;;;;;5.63;100.00;99433.97;1746500;82;20999;-40
2023/01/07 05:55:57;;;;;;;36.85;21.15;;;;;;;5.64;100.00;99432.61;1746438;82;21003;-41
2023/01/07 05:58:23;;;;;;;43.55;21.77;;;;;;;5.64;100.00;99433.92;1746468;82;20995;-44
2023/01/07 06:00:49;;;;;;;43.58;21.15;;;;;;;5.59;100.00;99430.60;1746459;82;20991;-40
2023/01/07 06:03:15;;;;;;;41.92;21.62;;;;;;;5.58;100.00;99434.09;1746399;82;21545;-40
2023/01/07 06:05:40;;;;;;;35.58;21.40;;;;;;;5.60;100.00;99434.90;1746363;81;20952;-43
2023/01/07 06:08:06;;;;;;;41.45;22.13;;;;;;;5.58;100.00;99431.06;1746386;82;21027;-43
2023/01/07 06:10:32;;;;;;;49.53;22.58;;;;;;;5.63;100.00;99438.72;1746354;82;20956;-41
2023/01/07 06:12:58;;;;;;;33.92;20.92;;;;;;;5.63;100.00;99438.72;1746404;82;21003;-42
2023/01/07 06:15:24;;;;;;;36.75;20.68;;;;;;;5.67;100.00;99443.39;1746402;82;20983;-43
2023/01/07 06:17:49;;;;;;;42.58;20.45;;;;;;;5.68;100.00;99446.41;1746482;82;21488;-42
2023/01/07 06:20:15;;;;;;;34.98;20.52;;;;;;;5.61;100.00;99441.83;1746427;82;20976;-41
2023/01/07 06:22:42;;;;;;;37.30;19.95;;;;;;;5.60;100.00;99451.86;1746471;82;21044;-40
2023/01/07 06:25:09;;;;;;;36.25;19.05;;;;;;;5.57;100.00;99455.43;1746380;82;21043;-41
2023/01/07 06:27:35;;;;;;;53.85;20.77;;;;;;;5.59;100.00;99454.08;1746510;82;21007;-42
2023/01/07 06:30:03;;;;;;;40.80;19.17;;;;;;;5.61;100.00;99452.73;1746365;82;20956;-41
2023/01/07 06:32:28;;;;;;;48.50;18.45;;;;;;;5.62;100.00;99460.52;1746377;82;21023;-43
2023/01/07 06:34:54;;;;;;;46.98;16.97;;;;;;;5.63;100.00;99456.98;1746383;82;20991;-43
2023/01/07 06:37:20;;;;;;;48.60;18.32;;;;;;;5.60;100.00;99457.08;1746405;82;20995;-40
2023/01/07 06:39:46;;;;;;;47.98;17.98;;;;;;;5.51;100.00;99467.80;1746554;82;21102;-42
2023/01/07 06:42:11;;;;;;;44.73;17.62;;;;;;;5.51;100.00;99474.33;1746423;81;21599;-41
2023/01/07 06:44:37;;;;;;;50.65;17.37;;;;;;;5.48;100.00;99473.98;1746383;82;21035;-41
2023/01/07 06:47:03;;;;;;;30.57;16.70;;;;;;;5.45;100.00;99478.45;1746277;82;21039;-42
2023/01/07 06:49:29;;;;;;;44.27;18.87;;;;;;;5.43;100.00;99472.42;1746332;82;20980;-41
2023/01/07 06:51:54;;;;;;;45.45;17.25;;;;;;;5.43;100.00;99478.48;1751399;82;21012;-40
2023/01/07 06:54:20;;;;;;;48.73;17.82;;;;;;;5.43;100.00;99479.79;1752113;82;21524;-41
2023/01/07 06:56:46;;;;;;;48.83;19.05;;;;;;;5.42;100.00;99486.36;1751997;82;21774;-44
2023/01/07 06:59:12;;;;;;;40.05;18.57;;;;;;;5.38;100.00;99477.77;1724268;82;20964;-43
2023/01/07 07:01:38;;;;;;;44.55;17.67;;;;;;;5.39;100.00;99484.25;1751818;82;20999;-41
2023/01/07 07:04:04;;;;;;;40.65;17.82;;;;;;;5.40;100.00;99483.78;1751922;81;20990;-42
2023/01/07 07:06:30;;;;;;;45.45;18.27;;;;;;;5.39;100.00;99484.25;1751923;82;20984;-43
2023/01/07 07:08:55;;;;;;;36.03;17.00;;;;;;;5.47;100.00;99482.70;1751905;81;21027;-40
2023/01/07 07:11:21;;;;;;;46.92;17.52;;;;;;;5.46;100.00;99477.56;1751935;82;20999;-40
2023/01/07 07:13:47;;;;;;;44.70;18.35;;;;;;;5.47;100.00;99479.24;1751971;81;21022;-43
2023/01/07 07:16:13;;;;;;;30.68;17.10;;;;;;;5.49;100.00;99482.20;1751952;82;21464;-41
2023/01/07 07:18:38;;;;;;;52.95;19.05;;;;;;;5.50;100.00;99478.70;1752020;81;21515;-41
2023/01/07 07:21:05;;;;;;;59.48;19.12;;;;;;;5.49;100.00;99483.96;1751942;82;20963;-40
2023/01/07 07:23:30;;;;;;;48.78;18.52;;;;;;;5.50;100.00;99483.07;1751931;82;21003;-41
2023/01/07 07:25:56;;;;;;;50.03;19.98;;;;;;;5.55;100.00;99479.88;1752016;82;21468;-43
2023/01/07 07:28:22;;;;;;;56.23;19.75;;;;;;;5.57;100.00;99483.28;1752026;82;21485;-43
2023/01/07 07:30:48;;;;;;;50.98;20.12;;;;;;;5.63;100.00;99485.68;1751836;82;21030;-43
2023/01/07 07:33:14;;;;;;;55.67;20.55;;;;;;;5.69;100.00;99489.84;1751868;82;20987;-43
2023/01/07 07:35:41;;;;;;;46.40;18.87;;;;;;;5.74;100.00;99492.70;1724663;82;21034;-41
2023/01/07 07:38:06;;;;;;;38.78;20.32;;;;;;;5.79;100.00;99486.52;1752340;82;20991;-40
2023/01/07 07:40:32;;;;;;;49.35;19.77;;;;;;;5.84;100.00;99488.49;1752122;82;21010;-41
2023/01/07 07:43:01;;;;;;;47.93;20.05;;;;;;;5.88;100.00;99494.03;1752065;82;20960;-44
2023/01/07 07:45:27;;;;;;;41.77;19.35;;;;;;;5.90;100.00;99493.53;1751981;82;20994;-41
2023/01/07 07:47:53;;;;;;;43.48;20.15;;;;;;;5.94;100.00;99498.58;1752103;81;21059;-40
2023/01/07 07:50:19;;;;;;;36.63;19.82;;;;;;;6.00;100.00;99494.94;1751275;82;20948;-41
2023/01/07 07:52:45;;;;;;;50.17;18.20;;;;;;;6.06;100.00;99488.69;1746598;82;21493;-40
2023/01/07 07:55:10;;;;;;;49.13;19.77;;;;;;;6.08;100.00;99486.42;1746488;82;20983;-40
2023/01/07 07:57:36;;;;;;;45.95;19.90;;;;;;;6.12;100.00;99491.08;1746609;82;21489;-43
2023/01/07 08:00:04;;;;;;;42.95;17.55;;;;;;;6.13;100.00;99493.65;1746462;82;21544;-42
2023/01/07 08:02:29;;;;;;;;;;;;;;;6.13;100.00;99497.99;1749102;82;21509;-43
2023/01/07 08:04:55;;;;;;;39.75;19.75;;;;;;;6.11;100.00;99501.11;1746493;82;20095;-43
2023/01/07 08:07:21;;;;;;;41.15;17.98;;;;;;;6.19;100.00;99502.19;1746393;82;21033;-44
2023/01/07 08:09:47;;;;;;;43.80;18.00;;;;;;;6.19;100.00;99496.50;1746419;82;20995;-42
2023/01/07 08:12:13;;;;;;;37.98;18.52;;;;;;;6.23;100.00;99502.47;1746470;82;20956;-43
2023/01/07 08:14:39;;;;;;;42.65;18.17;;;;;;;6.24;100.00;99495.02;1746520;82;21434;-40
2023/01/07 08:17:04;;;;;;;35.45;17.95;;;;;;;6.26;100.00;99504.98;1746603;82;20992;-41
2023/01/07 08:19:30;;;;;;;32.25;18.07;;;;;;;6.32;100.00;99504.30;1746460;82;21026;-41
2023/01/07 08:21:56;;;;;;;36.60;19.12;;;;;;;6.32;100.00;99509.53;1746472;82;21027;-39
2023/01/07 08:24:23;;;;;;;43.10;18.92;;;;;;;6.36;100.00;99518.11;1746417;82;21118;-42
2023/01/07 08:26:49;;;;;;;34.75;19.17;;;;;;;6.39;100.00;99515.41;1746488;82;21467;-39
2023/01/07 08:29:15;;;;;;;46.90;18.80;;;;;;;6.42;100.00;99515.73;1746367;82;20983;-42
2023/01/07 08:31:41;;;;;;;41.63;17.85;;;;;;;6.42;100.00;99517.92;1746459;81;21504;-40
2023/01/07 08:34:06;;;;;;;37.20;18.90;;;;;;;6.40;100.00;99516.25;1746480;82;21031;-40
2023/01/07 08:36:32;;;;;;;36.28;19.75;;;;;;;6.39;100.00;99512.80;1746567;82;21030;-40
2023/01/07 08:38:58;;;;;;;44.18;19.80;;;;;;;6.41;100.00;99517.51;1746534;82;21047;-40
2023/01/07 08:41:24;;;;;;;37.55;18.42;;;;;;;6.39;100.00;99514.09;1746497;81;21460;-42
2023/01/07 08:43:52;;;;;;;43.42;20.30;;;;;;;6.44;100.00;99506.09;1746388;82;20980;-42
2023/01/07 08:46:18;;;;;;;;;;;;;;;6.46;100.00;99509.06;1749184;82;20995;-41
2023/01/07 08:48:43;;;;;;;41.25;21.27;;;;;;;6.46;100.00;99505.14;1746590;82;20435;-39
2023/01/07 08:51:09;;;;;;;41.48;21.35;;;;;;;6.49;100.00;99498.95;1747734;81;20984;-42
2023/01/07 08:53:35;;;;;;;38.42;20.23;;;;;;;6.48;100.00;99499.41;1752024;82;21022;-40
2023/01/07 08:56:01;;;;;;;38.05;19.92;;;;;;;6.47;100.00;99501.61;1752023;82;20991;-42
2023/01/07 08:58:26;;;;;;;41.18;20.08;;;;;;;6.51;100.00;99497.13;1752095;82;21102;-42
2023/01/07 09:00:52;;;;;;;40.00;21.97;;;;;;;6.58;100.00;99499.08;1752213;82;21506;-41
2023/01/07 09:03:18;;;;;;;38.70;20.35;;;;;;;6.58;100.00;99499.08;1751986;82;21454;-39
2023/01/07 09:05:47;;;;;;;37.00;19.67;;;;;;;6.64;100.00;99497.11;1752131;82;21003;-40
2023/01/07 09:08:12;;;;;;;38.08;20.32;;;;;;;6.71;100.00;99503.83;1751996;81;20987;-42
2023/01/07 09:10:38;;;;;;;37.23;20.55;;;;;;;6.77;100.00;99498.83;1751969;82;20959;-40
2023/01/07 09:13:04;;;;;;;39.23;21.52;;;;;;;6.77;100.00;99502.75;1751939;82;20987;-44
2023/01/07 09:15:30;;;;;;;42.15;20.60;;;;;;;6.79;100.00;99502.23;1752045;82;21006;-39
2023/01/07 09:17:56;;;;;;;37.58;20.30;;;;;;;6.83;100.00;99493.83;1752097;81;20991;-42
2023/01/07 09:20:21;;;;;;;44.65;21.00;;;;;;;6.88;100.00;99499.28;1752028;82;21456;-42
2023/01/07 09:22:47;;;;;;;46.42;20.55;;;;;;;6.93;100.00;99499.13;1752010;82;20992;-41
2023/01/07 09:25:13;;;;;;;34.15;19.12;;;;;;;6.98;100.00;99498.47;1751995;81;20956;-41
2023/01/07 09:27:41;;;;;;;32.08;18.77;;;;;;;7.04;100.00;99494.77;1751964;82;20987;-40
2023/01/07 09:30:08;;;;;;;;;;;;;;;7.02;100.00;99494.86;1754639;82;21508;-43
2023/01/07 09:32:34;;;;;;;34.58;20.85;;;;;;;6.97;100.00;99493.30;1752130;82;20135;-40
2023/01/07 09:35:00;;;;;;;36.40;19.65;;;;;;;6.96;100.00;99487.69;1751946;82;20991;-40
2023/01/07 09:37:26;;;;;;;43.25;19.55;;;;;;;7.04;100.00;99494.77;1751970;82;20987;-40
2023/01/07 09:39:52;;;;;;;31.80;18.02;;;;;;;7.10;100.00;99478.88;1751965;82;20987;-41
2023/01/07 09:42:44;;;;;;;33.67;19.05;;;;;;;7.09;100.00;99489.80;1751931;82;21027;-42
2023/01/07 09:45:44;;;;;;;29.95;17.55;;;;;;;7.13;100.00;99483.99;1752152;81;20979;-40
2023/01/07 09:48:17;;;;;;;27.30;16.80;;;;;;;7.16;99.85;99480.39;1752065;82;20991;-40
2023/01/07 09:51:11;;;;;;;33.15;18.45;;;;;;;7.10;99.27;99482.80;1751417;82;20991;-42
2023/01/07 09:53:53;;;;;;;27.93;18.60;;;;;;;7.08;99.25;99482.84;1724361;82;21488;-39
2023/01/07 09:56:27;;;;;;;30.52;18.15;;;;;;;7.01;99.68;99477.91;1751976;82;21002;-42
2023/01/07 09:58:55;;;;;;;28.27;17.52;;;;;;;7.01;99.60;99484.45;1751878;82;21480;-41
2023/01/07 10:01:50;;;;;;;47.55;23.77;;;;;;;6.88;99.74;99485.36;1751951;81;21460;-40
2023/01/07 10:04:48;;;;;;;28.95;18.70;;;;;;;6.94;100.00;99485.59;1751977;82;21472;-42
2023/01/07 10:07:32;;;;;;;30.60;18.52;;;;;;;6.94;99.91;99483.81;1751069;82;20999;-42
2023/01/07 10:10:23;;;;;;;36.30;20.68;;;;;;;6.88;100.00;99480.14;1751607;82;20991;-43
2023/01/07 10:13:12;;;;;;;26.80;17.27;;;;;;;6.92;100.00;99487.79;1751034;82;21003;-42
2023/01/07 10:15:58;;;;;;;28.57;18.15;;;;;;;6.98;100.00;99499.78;1751270;82;21003;-42
2023/01/07 10:18:35;;;;;;;30.92;18.27;;;;;;;6.97;100.00;99494.60;1752167;81;21476;-43
2023/01/07 10:21:33;;;;;;;24.82;15.95;;;;;;;7.00;100.00;99495.80;1750587;82;20991;-40
2023/01/07 10:24:17;;;;;;;25.15;17.80;;;;;;;7.04;100.00;99500.88;1751472;82;21030;-42
2023/01/07 10:26:47;;;;;;;28.07;15.80;;;;;;;7.04;100.00;99502.62;1751952;82;21035;-40
2023/01/07 10:29:38;;;;;;;26.60;17.37;;;;;;;6.98;100.00;99501.09;1751884;81;20960;-40
2023/01/07 10:32:10;;;;;;;25.25;16.95;;;;;;;7.02;99.91;99497.47;1751900;82;21499;-42
2023/01/07 10:34:46;;;;;;;25.48;14.87;;;;;;;7.09;99.57;99496.77;1748746;81;21027;-41
2023/01/07 10:37:35;;;;;;;23.30;14.23;;;;;;;7.07;99.31;99487.66;1751997;82;21030;-40
2023/01/07 10:40:21;;;;;;;20.23;14.10;;;;;;;7.08;99.24;99484.62;1750988;82;21043;-40
2023/01/07 10:43:01;;;;;;;24.75;15.28;;;;;;;7.14;99.26;99480.91;1751542;81;21039;-41
2023/01/07 10:45:56;;;;;;;22.62;16.10;;;;;;;7.16;99.10;99466.85;1751929;82;21476;-41
2023/01/07 10:48:45;;;;;;;22.55;15.43;;;;;;;7.16;99.13;99461.63;1752118;82;20983;-41
2023/01/07 10:51:35;;;;;;;23.07;14.90;;;;;;;7.23;99.03;99465.70;1751171;82;21027;-40
2023/01/07 10:54:29;;;;;;;25.60;15.63;;;;;;;7.30;98.59;99463.25;1754074;82;21000;-39
2023/01/07 10:57:15;;;;;;;22.37;14.90;;;;;;;7.39;98.54;99458.59;1754602;82;21034;-40
2023/01/07 10:59:52;;;;;;;21.13;14.00;;;;;;;7.43;98.63;99457.08;1754211;82;20991;-39
2023/01/07 11:02:21;;;;;;;25.57;15.90;;;;;;;7.48;98.14;99454.29;1754595;82;21499;-40
2023/01/07 11:04:48;;;;;;;25.32;16.30;;;;;;;7.51;98.04;99439.75;1754590;80;21035;-40
2023/01/07 11:07:50;;;;;;;24.50;15.53;;;;;;;7.59;97.78;99447.32;1754614;82;21030;-41
2023/01/07 11:10:24;;;;;;;24.20;15.75;;;;;;;7.63;97.67;99444.97;1754545;82;20983;-40
2023/01/07 11:12:58;;;;;;;25.37;16.15;;;;;;;7.65;97.32;99438.74;1753498;82;20991;-40
2023/01/07 11:15:34;;;;;;;21.90;15.38;;;;;;;7.68;97.10;99444.33;1753001;82;20995;-43
2023/01/07 11:18:04;;;;;;;22.52;16.00;;;;;;;7.73;97.09;99445.43;1754691;82;20971;-39
2023/01/07 11:20:46;;;;;;;21.93;16.57;;;;;;;7.75;96.89;99440.98;1754552;81;21476;-41
2023/01/07 11:23:38;;;;;;;26.50;17.52;;;;;;;7.75;96.60;99439.67;1754315;82;21039;-42
2023/01/07 11:26:15;;;;;;;25.65;17.40;;;;;;;7.78;96.48;99430.39;1753497;82;21434;-40
2023/01/07 11:29:03;;;;;;;25.23;17.10;;;;;;;7.86;96.42;99430.47;1754994;82;21054;-42
2023/01/07 11:31:49;;;;;;;25.85;17.52;;;;;;;7.88;96.51;99423.40;1752512;82;20995;-40
2023/01/07 11:34:29;;;;;;;34.00;18.87;;;;;;;7.92;96.20;99417.57;1754143;82;21000;-42
2023/01/07 11:36:55;;;;;;;27.70;18.42;;;;;;;8.03;96.25;99417.95;1754748;82;21480;-45
2023/01/07 11:39:31;;;;;;;28.10;18.17;;;;;;;8.14;96.37;99420.59;1755049;82;20971;-40
2023/01/07 11:42:37;;;;;;;34.35;20.68;;;;;;;8.30;96.40;99419.00;1754997;82;21508;-49
2023/01/07 11:44:28;;;;;;;41.20;23.12;;;;;;;8.33;95.25;99413.64;1750448;82;21543;-43
2023/01/07 11:46:54;;;;;;;39.13;24.12;;;;;;;8.32;95.13;99417.16;1754751;82;21079;-39
2023/01/07 11:49:28;;;;;;;34.63;20.43;;;;;;;8.23;94.54;99415.79;1754662;80;20984;-39